Archival Weather

Norman Y Mineta San Jose Intl

San Jose, California (KSJC)

Report from: Sunday, January 28, 2024 3:53 AM PST
Current time: Friday, June 14, 2024 6:14 AM PDT

Current weather – Weather history – Daily summaries
Weather forecast

Temperature12.8°C (55.0°F)
Dew point10.0°C (50.0°F)
Winds Calm
Visibility10 mi. (16.1 km)
Clouds Sky clear
Altimeter30.19 in.Hg (1022 mB)
Relative humidity83 %
Density altitude-390 ft. (-119 m)
Sea-level pressure102.2 kPa (1022 mB, 30.19 in.Hg)
Max temp last 6 hours15.0°C (59.0°F)
Min temp last 6 hours12.2°C (54.0°F)
Remarks Fully automated report
Automated weather observing station with precipitation discriminator
Pressure falling more slowly
Flight conditions Visual Meteorological Conditions
Raw dataKSJC 281153Z AUTO 00000KT 10SM CLR 13/10 A3019 RMK AO2 SLP222 T01280100 10150 20122 56005
An error has occurred. This application may no longer respond until reloaded. Reload 🗙